createdAt,value
2019-04-26T00:00:48.608Z,35.90
2019-04-26T00:03:30.637Z,35.90
2019-04-26T00:06:08.990Z,35.90
2019-04-26T00:08:49.278Z,36.00
2019-04-26T00:11:40.475Z,36.00
2019-04-26T00:14:32.608Z,36.00
2019-04-26T00:17:16.404Z,36.00
2019-04-26T00:19:53.488Z,36.00
2019-04-26T00:22:29.980Z,35.90
2019-04-26T00:25:06.496Z,36.00
2019-04-26T00:27:43.660Z,36.00
2019-04-26T00:30:20.025Z,36.00
2019-04-26T00:32:57.301Z,36.00
2019-04-26T00:35:46.557Z,36.00
2019-04-26T00:38:14.136Z,36.00
2019-04-26T00:40:51.365Z,36.00
2019-04-26T00:43:30.740Z,36.00
2019-04-26T00:46:07.578Z,36.00
2019-04-26T00:48:44.526Z,36.00
2019-04-26T00:51:21.350Z,36.00
2019-04-26T00:53:58.692Z,36.00
2019-04-26T00:56:35.877Z,36.00
2019-04-26T00:59:14.901Z,36.10
2019-04-26T01:01:56.298Z,36.00
2019-04-26T01:04:33.896Z,36.00
2019-04-26T01:07:11.064Z,36.00
2019-04-26T01:09:47.217Z,36.00
2019-04-26T01:12:23.917Z,35.90
2019-04-26T01:15:00.432Z,36.00
2019-04-26T01:17:36.746Z,36.00
2019-04-26T01:20:13.293Z,35.90
2019-04-26T01:22:52.532Z,36.00
2019-04-26T01:25:42.002Z,36.00
2019-04-26T01:28:28.900Z,36.00
2019-04-26T01:31:07.949Z,36.00
2019-04-26T01:33:46.012Z,35.90
2019-04-26T01:36:24.378Z,36.00
2019-04-26T01:39:09.155Z,36.00
2019-04-26T01:41:51.745Z,35.90
2019-04-26T01:45:01.941Z,35.90
2019-04-26T01:47:39.793Z,35.90
2019-04-26T01:50:17.080Z,35.90
2019-04-26T01:52:54.177Z,36.40
2019-04-26T01:55:32.820Z,35.90
2019-04-26T01:58:09.250Z,35.90
2019-04-26T02:00:59.313Z,35.90
2019-04-26T02:03:35.105Z,35.90
2019-04-26T02:06:11.468Z,35.90
2019-04-26T02:08:47.734Z,35.90
2019-04-26T02:11:25.049Z,35.90
2019-04-26T02:14:01.943Z,35.90
2019-04-26T02:16:39.061Z,36.00
2019-04-26T02:19:15.976Z,35.90
2019-04-26T02:22:16.379Z,35.90
2019-04-26T02:24:53.143Z,35.80
2019-04-26T02:27:32.514Z,35.90
2019-04-26T02:30:09.321Z,35.90
2019-04-26T02:32:45.137Z,36.50
2019-04-26T02:35:22.117Z,35.90
2019-04-26T02:37:59.069Z,35.90
2019-04-26T02:40:36.753Z,35.90
2019-04-26T02:43:15.389Z,35.90
2019-04-26T02:46:03.125Z,35.90
2019-04-26T02:48:53.805Z,35.90
2019-04-26T02:51:36.912Z,35.90
2019-04-26T02:54:45.186Z,36.00
2019-04-26T02:57:45.247Z,35.90
2019-04-26T03:00:21.733Z,35.90
2019-04-26T03:03:04.770Z,35.90
2019-04-26T03:05:43.165Z,35.90
2019-04-26T03:08:23.346Z,35.90
2019-04-26T03:11:11.696Z,35.90
2019-04-26T03:13:59.719Z,35.90
2019-04-26T03:17:06.862Z,35.90
2019-04-26T03:19:54.947Z,35.90
2019-04-26T03:23:08.033Z,35.90
2019-04-26T03:26:16.533Z,35.90
2019-04-26T03:29:22.154Z,35.90
2019-04-26T03:32:26.877Z,35.90
2019-04-26T03:35:27.774Z,36.50
2019-04-26T03:38:34.482Z,36.00
2019-04-26T03:42:02.305Z,35.90
2019-04-26T03:45:00.669Z,35.90
2019-04-26T03:47:43.981Z,36.00
2019-04-26T03:50:25.775Z,35.90
2019-04-26T03:53:40.415Z,35.90
2019-04-26T03:56:49.898Z,35.90
2019-04-26T03:59:56.472Z,35.90
2019-04-26T04:03:10.376Z,35.90
2019-04-26T04:05:51.201Z,35.90
2019-04-26T04:08:48.247Z,35.90
2019-04-26T04:12:10.038Z,35.90
2019-04-26T04:14:58.166Z,35.90
2019-04-26T04:17:52.610Z,35.90
2019-04-26T04:21:02.750Z,35.90
2019-04-26T04:24:05.504Z,35.90
2019-04-26T04:27:03.386Z,35.90
2019-04-26T04:30:07.858Z,35.90
2019-04-26T04:33:20.070Z,35.90
2019-04-26T04:36:01.217Z,35.90
2019-04-26T04:38:50.735Z,35.90
2019-04-26T04:41:45.054Z,35.90
2019-04-26T04:45:01.670Z,36.00
2019-04-26T04:48:31.208Z,36.00
2019-04-26T04:51:44.889Z,35.90
2019-04-26T04:54:29.351Z,36.00
2019-04-26T04:57:28.623Z,36.20
2019-04-26T05:00:28.288Z,36.00
2019-04-26T05:03:26.481Z,35.90
2019-04-26T05:06:30.608Z,36.00
2019-04-26T05:09:13.018Z,35.90
2019-04-26T05:12:18.457Z,36.00
2019-04-26T05:15:09.157Z,36.00
2019-04-26T05:18:17.664Z,36.00
2019-04-26T05:21:25.380Z,36.00
2019-04-26T05:24:19.445Z,36.00
2019-04-26T05:27:52.978Z,40.20
2019-04-26T05:31:00.241Z,40.60
2019-04-26T05:34:09.688Z,40.20
2019-04-26T05:37:21.971Z,39.30
2019-04-26T05:40:36.451Z,39.10
2019-04-26T05:43:55.990Z,38.00
2019-04-26T05:47:26.625Z,37.80
2019-04-26T05:50:55.919Z,37.60
2019-04-26T05:54:44.111Z,38.20
2019-04-26T05:57:51.001Z,37.50
2019-04-26T06:01:02.641Z,37.50
2019-04-26T06:04:27.318Z,37.50
2019-04-26T06:07:34.359Z,37.50
2019-04-26T06:10:34.504Z,37.60
2019-04-26T06:13:52.173Z,37.60
2019-04-26T06:17:30.357Z,37.70
2019-04-26T06:20:23.294Z,37.00
2019-04-26T06:23:23.447Z,37.10
2019-04-26T06:26:34.003Z,37.10
2019-04-26T06:29:18.880Z,37.70
2019-04-26T06:32:05.997Z,37.90
2019-04-26T06:35:04.324Z,37.70
2019-04-26T06:38:02.145Z,37.80
2019-04-26T06:40:53.485Z,37.70
2019-04-26T06:43:42.355Z,37.60
2019-04-26T06:47:25.640Z,37.80
2019-04-26T06:50:24.368Z,37.60
2019-04-26T06:53:40.838Z,37.60
2019-04-26T06:56:55.894Z,37.60
2019-04-26T06:59:59.208Z,38.00
2019-04-26T07:03:18.532Z,37.50
2019-04-26T07:06:00.449Z,37.50
2019-04-26T07:08:56.610Z,37.60
2019-04-26T07:12:07.204Z,37.70
2019-04-26T07:15:28.638Z,37.80
2019-04-26T07:18:24.669Z,37.90
2019-04-26T07:21:27.050Z,37.90
2019-04-26T07:24:25.921Z,38.00
2019-04-26T07:28:03.407Z,38.20
2019-04-26T07:30:57.423Z,38.20
2019-04-26T07:34:07.267Z,38.20
2019-04-26T07:37:24.673Z,38.30
2019-04-26T07:41:05.906Z,38.40
2019-04-26T07:44:24.346Z,38.50
2019-04-26T07:47:45.262Z,38.80
2019-04-26T07:50:58.179Z,38.80
2019-04-26T07:54:22.721Z,39.00
2019-04-26T07:57:38.869Z,38.70
2019-04-26T08:00:44.204Z,39.10
2019-04-26T08:03:20.202Z,39.20
2019-04-26T08:06:29.891Z,39.10
2019-04-26T08:09:25.974Z,39.30
2019-04-26T08:11:55.003Z,39.30
2019-04-26T08:14:39.033Z,39.40
2019-04-26T08:17:53.941Z,39.30
2019-04-26T08:20:48.362Z,39.30
2019-04-26T08:23:41.650Z,39.40
2019-04-26T08:26:18.601Z,39.20
2019-04-26T08:29:00.372Z,39.70
2019-04-26T08:31:38.049Z,39.30
2019-04-26T08:34:20.617Z,39.30
2019-04-26T08:37:06.722Z,39.40
2019-04-26T08:39:50.423Z,39.70
2019-04-26T08:42:32.617Z,39.60
2019-04-26T08:45:21.891Z,39.50
2019-04-26T08:48:17.377Z,39.50
2019-04-26T08:50:56.101Z,39.50
2019-04-26T08:53:35.115Z,39.50
2019-04-26T08:56:16.665Z,39.20
2019-04-26T08:58:57.511Z,39.30
2019-04-26T09:01:46.644Z,39.30
2019-04-26T09:04:30.785Z,39.40
2019-04-26T09:07:16.827Z,39.40
2019-04-26T09:09:57.495Z,39.40
2019-04-26T09:12:36.420Z,39.30
2019-04-26T09:15:14.804Z,39.40
2019-04-26T09:17:51.239Z,39.40
2019-04-26T09:20:29.552Z,39.40
2019-04-26T09:23:21.679Z,39.50
2019-04-26T09:26:01.361Z,39.40
2019-04-26T09:29:03.042Z,39.50
2019-04-26T09:31:44.647Z,39.40
2019-04-26T09:34:21.412Z,39.50
2019-04-26T09:36:58.627Z,39.60
2019-04-26T09:39:34.649Z,39.60
2019-04-26T09:42:28.244Z,39.70
2019-04-26T09:45:24.089Z,39.60
2019-04-26T09:48:05.895Z,39.60
2019-04-26T09:50:47.319Z,39.80
2019-04-26T09:53:23.952Z,39.90
2019-04-26T09:56:00.661Z,39.90
2019-04-26T09:58:37.156Z,40.00
2019-04-26T10:01:13.155Z,40.10
2019-04-26T10:03:49.413Z,40.00
2019-04-26T10:06:26.117Z,40.00
2019-04-26T10:09:03.198Z,40.10
2019-04-26T10:11:45.197Z,39.90
2019-04-26T10:14:30.817Z,40.10
2019-04-26T10:17:23.765Z,40.40
2019-04-26T10:20:00.324Z,40.80
2019-04-26T10:22:36.616Z,41.00
2019-04-26T10:25:16.576Z,41.00
2019-04-26T10:27:51.337Z,41.30
2019-04-26T10:30:27.989Z,41.90
2019-04-26T10:33:05.799Z,41.60
2019-04-26T10:35:42.321Z,41.70
2019-04-26T10:38:19.445Z,41.50
2019-04-26T10:40:56.225Z,41.70
2019-04-26T10:43:32.744Z,41.50
2019-04-26T10:46:09.970Z,41.80
2019-04-26T10:48:49.723Z,41.70
2019-04-26T10:51:38.720Z,41.70
2019-04-26T10:54:19.525Z,41.60
2019-04-26T10:57:03.607Z,41.80
2019-04-26T10:59:58.963Z,40.50
2019-04-26T11:02:35.520Z,40.40
2019-04-26T11:05:18.133Z,39.60
2019-04-26T11:07:53.332Z,40.80
2019-04-26T11:10:29.585Z,41.20
2019-04-26T11:13:06.309Z,41.60
2019-04-26T11:15:43.599Z,40.20
2019-04-26T11:18:27.234Z,41.20
2019-04-26T11:20:57.890Z,40.30
2019-04-26T11:23:33.803Z,40.10
2019-04-26T11:26:09.668Z,39.80
2019-04-26T11:28:46.007Z,40.90
2019-04-26T11:31:23.487Z,41.40
2019-04-26T11:34:05.424Z,41.60
2019-04-26T11:36:41.858Z,41.60
2019-04-26T11:39:18.567Z,42.00
2019-04-26T11:41:54.462Z,42.10
2019-04-26T11:44:31.097Z,42.30
2019-04-26T11:47:07.903Z,41.70
2019-04-26T11:49:44.600Z,41.60
2019-04-26T11:52:21.177Z,41.10
2019-04-26T11:54:57.239Z,41.20
2019-04-26T11:57:33.645Z,41.70
2019-04-26T12:00:15.972Z,41.70
2019-04-26T12:02:52.327Z,42.10
2019-04-26T12:05:46.690Z,42.40
2019-04-26T12:08:32.036Z,42.10
2019-04-26T12:11:18.242Z,42.80
2019-04-26T12:13:47.301Z,42.40
2019-04-26T12:16:23.852Z,42.30
2019-04-26T12:19:00.205Z,42.10
2019-04-26T12:21:36.293Z,42.20
2019-04-26T12:24:12.144Z,41.90
2019-04-26T12:26:48.256Z,41.70
2019-04-26T12:29:25.504Z,42.00
2019-04-26T12:32:02.585Z,41.60
2019-04-26T12:34:39.850Z,41.40
2019-04-26T12:37:20.023Z,41.40
2019-04-26T12:39:57.401Z,41.30
2019-04-26T12:42:34.929Z,41.30
2019-04-26T12:45:39.090Z,41.30
2019-04-26T12:48:16.845Z,41.30
2019-04-26T12:50:53.409Z,41.40
2019-04-26T12:53:31.355Z,41.40
2019-04-26T12:56:08.816Z,42.20
2019-04-26T12:58:49.910Z,41.40
2019-04-26T13:01:24.499Z,41.30
2019-04-26T13:04:05.134Z,41.60
2019-04-26T13:06:50.251Z,41.30
2019-04-26T13:09:27.976Z,41.70
2019-04-26T13:12:17.667Z,41.90
2019-04-26T13:15:13.210Z,41.60
2019-04-26T13:17:54.211Z,41.40
2019-04-26T13:20:30.250Z,41.30
2019-04-26T13:23:06.188Z,41.30
2019-04-26T13:25:45.649Z,41.20
2019-04-26T13:28:22.196Z,41.40
2019-04-26T13:31:02.069Z,41.30
2019-04-26T13:33:37.170Z,41.20
2019-04-26T13:36:13.299Z,41.30
2019-04-26T13:38:49.693Z,41.20
2019-04-26T13:41:27.961Z,41.20
2019-04-26T13:44:05.914Z,40.70
2019-04-26T13:47:09.562Z,40.90
2019-04-26T13:49:54.622Z,40.90
2019-04-26T13:52:35.626Z,41.00
2019-04-26T13:55:13.617Z,41.10
2019-04-26T13:57:51.294Z,40.90
2019-04-26T14:00:39.679Z,41.10
2019-04-26T14:03:15.484Z,41.20
2019-04-26T14:05:51.863Z,41.30
2019-04-26T14:08:28.532Z,41.40
2019-04-26T14:11:05.949Z,41.20
2019-04-26T14:13:42.352Z,41.30
2019-04-26T14:16:21.177Z,41.30
2019-04-26T14:18:57.695Z,41.30
2019-04-26T14:21:34.807Z,41.20
2019-04-26T14:24:30.783Z,41.20
2019-04-26T14:27:27.264Z,41.20
2019-04-26T14:30:06.536Z,41.10
2019-04-26T14:32:42.712Z,41.10
2019-04-26T14:35:19.728Z,41.00
2019-04-26T14:37:56.882Z,41.10
2019-04-26T14:40:33.277Z,41.10
2019-04-26T14:43:10.397Z,41.10
2019-04-26T14:45:55.674Z,41.10
2019-04-26T14:48:35.806Z,41.00
2019-04-26T14:51:08.352Z,40.90
2019-04-26T14:53:43.901Z,40.90
2019-04-26T14:56:20.608Z,40.90
2019-04-26T14:58:56.772Z,40.90
2019-04-26T15:02:02.438Z,40.90
2019-04-26T15:04:53.736Z,40.80
2019-04-26T15:07:32.502Z,40.80
2019-04-26T15:10:10.945Z,40.80
2019-04-26T15:12:52.709Z,40.80
2019-04-26T15:15:27.065Z,40.80
2019-04-26T15:18:03.193Z,40.70
2019-04-26T15:20:39.749Z,40.60
2019-04-26T15:23:19.481Z,40.40
2019-04-26T15:25:54.707Z,40.70
2019-04-26T15:28:33.231Z,40.70
2019-04-26T15:31:09.300Z,40.70
2019-04-26T15:33:48.702Z,40.80
2019-04-26T15:36:23.949Z,40.60
2019-04-26T15:39:02.752Z,40.60
2019-04-26T15:41:58.768Z,40.80
2019-04-26T15:45:03.943Z,40.80
2019-04-26T15:47:57.946Z,40.70
2019-04-26T15:50:40.906Z,40.60
2019-04-26T15:53:17.660Z,40.70
2019-04-26T15:55:54.660Z,40.80
2019-04-26T15:58:31.392Z,40.70
2019-04-26T16:01:10.892Z,40.60
2019-04-26T16:03:45.413Z,40.60
2019-04-26T16:06:23.557Z,40.50
2019-04-26T16:09:02.351Z,40.50
2019-04-26T16:11:49.402Z,40.50
2019-04-26T16:14:24.879Z,40.40
2019-04-26T16:17:03.101Z,40.40
2019-04-26T16:19:38.357Z,40.40
2019-04-26T16:22:14.917Z,40.30
2019-04-26T16:24:53.111Z,40.30
2019-04-26T16:27:32.301Z,40.30
2019-04-26T16:30:28.378Z,40.20
2019-04-26T16:33:21.090Z,40.20
2019-04-26T16:36:01.744Z,40.20
2019-04-26T16:38:36.660Z,40.20
2019-04-26T16:41:12.871Z,40.10
2019-04-26T16:43:53.022Z,40.20
2019-04-26T16:46:27.379Z,40.10
2019-04-26T16:49:06.254Z,40.10
2019-04-26T16:51:43.601Z,40.20
2019-04-26T16:54:22.084Z,40.20
2019-04-26T16:56:59.109Z,40.20
2019-04-26T16:59:36.258Z,40.20
2019-04-26T17:02:13.347Z,40.40
2019-04-26T17:04:53.459Z,40.50
2019-04-26T17:07:29.751Z,40.40
2019-04-26T17:10:06.649Z,40.60
2019-04-26T17:12:46.373Z,40.70
2019-04-26T17:15:24.145Z,40.80
2019-04-26T17:18:00.035Z,40.90
2019-04-26T17:20:36.618Z,40.80
2019-04-26T17:23:35.620Z,40.90
2019-04-26T17:26:36.451Z,40.90
2019-04-26T17:29:11.957Z,40.90
2019-04-26T17:31:56.444Z,41.10
2019-04-26T17:34:33.653Z,41.00
2019-04-26T17:37:16.488Z,41.10
2019-04-26T17:39:52.189Z,41.00
2019-04-26T17:42:29.790Z,40.80
2019-04-26T17:45:07.170Z,40.80
2019-04-26T17:47:43.371Z,40.80
2019-04-26T17:50:20.532Z,40.70
2019-04-26T17:52:57.285Z,40.60
2019-04-26T17:55:33.967Z,40.80
2019-04-26T17:58:14.584Z,40.70
2019-04-26T18:00:48.480Z,40.70
2019-04-26T18:03:29.105Z,40.70
2019-04-26T18:06:09.410Z,40.70
2019-04-26T18:08:51.972Z,40.90
2019-04-26T18:11:24.978Z,40.70
2019-04-26T18:14:00.416Z,40.70
2019-04-26T18:16:39.145Z,40.70
2019-04-26T18:19:33.470Z,40.60
2019-04-26T18:22:23.779Z,40.60
2019-04-26T18:25:04.263Z,40.70
2019-04-26T18:27:38.863Z,40.60
2019-04-26T18:30:15.754Z,40.70
2019-04-26T18:32:53.003Z,40.70
2019-04-26T18:35:29.698Z,40.80
2019-04-26T18:38:08.543Z,40.70
2019-04-26T18:41:00.163Z,40.70
2019-04-26T18:43:24.430Z,40.80
2019-04-26T18:46:06.597Z,40.80
2019-04-26T18:48:44.019Z,40.90
2019-04-26T18:51:23.700Z,40.80
2019-04-26T18:54:17.965Z,40.80
2019-04-26T18:56:56.624Z,40.80
2019-04-26T18:59:34.128Z,40.90
2019-04-26T19:02:18.178Z,40.80
2019-04-26T19:04:49.835Z,41.10
2019-04-26T19:07:32.521Z,41.30
2019-04-26T19:10:06.537Z,41.40
2019-04-26T19:12:44.207Z,41.40
2019-04-26T19:15:46.663Z,41.20
2019-04-26T19:18:37.679Z,41.30
2019-04-26T19:21:21.940Z,41.30
2019-04-26T19:24:05.809Z,41.20
2019-04-26T19:26:36.626Z,41.30
2019-04-26T19:29:18.076Z,41.10
2019-04-26T19:31:52.226Z,41.10
2019-04-26T19:34:30.355Z,41.10
2019-04-26T19:37:08.280Z,41.00
2019-04-26T19:39:45.695Z,41.20
2019-04-26T19:42:21.847Z,41.10
2019-04-26T19:45:11.750Z,40.90
2019-04-26T19:48:04.022Z,41.10
2019-04-26T19:51:06.949Z,40.90
2019-04-26T19:53:54.247Z,40.90
2019-04-26T19:56:41.848Z,40.90
2019-04-26T19:59:18.613Z,40.90
2019-04-26T20:01:57.632Z,40.80
2019-04-26T20:04:34.783Z,40.80
2019-04-26T20:07:12.374Z,40.80
2019-04-26T20:09:48.978Z,40.90
2019-04-26T20:12:29.391Z,40.80
2019-04-26T20:15:05.652Z,40.80
2019-04-26T20:17:42.378Z,40.50
2019-04-26T20:20:21.407Z,39.90
2019-04-26T20:22:59.331Z,39.50
2019-04-26T20:25:35.097Z,40.00
2019-04-26T20:28:12.155Z,40.50
2019-04-26T20:31:23.733Z,41.10
2019-04-26T20:34:01.530Z,40.40
2019-04-26T20:36:41.527Z,40.30
2019-04-26T20:39:20.858Z,40.30
2019-04-26T20:42:01.975Z,40.40
2019-04-26T20:44:48.250Z,40.60
2019-04-26T20:47:17.480Z,40.70
2019-04-26T20:50:00.789Z,40.90
2019-04-26T20:52:29.648Z,40.70
2019-04-26T20:55:06.666Z,40.80
2019-04-26T20:57:44.711Z,40.90
2019-04-26T21:00:22.490Z,40.80
2019-04-26T21:03:01.578Z,40.90
2019-04-26T21:05:45.768Z,40.80
2019-04-26T21:08:15.216Z,40.80
2019-04-26T21:10:52.160Z,40.90
2019-04-26T21:13:31.055Z,40.90
2019-04-26T21:16:10.590Z,40.90
2019-04-26T21:18:46.712Z,40.80
2019-04-26T21:21:23.393Z,40.70
2019-04-26T21:24:01.642Z,40.70
2019-04-26T21:27:06.821Z,40.80
2019-04-26T21:29:58.972Z,40.90
2019-04-26T21:32:56.071Z,40.80
2019-04-26T21:35:38.389Z,40.70
2019-04-26T21:38:21.557Z,40.70
2019-04-26T21:41:11.002Z,40.70
2019-04-26T21:43:48.310Z,40.70
2019-04-26T21:46:24.478Z,40.80
2019-04-26T21:49:00.336Z,40.70
2019-04-26T21:51:39.353Z,40.60
2019-04-26T21:54:18.018Z,40.70
2019-04-26T21:56:54.741Z,40.80
2019-04-26T21:59:35.206Z,40.70
2019-04-26T22:02:10.731Z,40.70
2019-04-26T22:04:46.963Z,40.70
2019-04-26T22:07:24.207Z,40.70
2019-04-26T22:10:33.548Z,40.70
2019-04-26T22:13:13.973Z,40.70
2019-04-26T22:15:59.269Z,40.70
2019-04-26T22:18:56.566Z,41.00
2019-04-26T22:21:38.211Z,41.10
2019-04-26T22:24:35.885Z,40.90
2019-04-26T22:27:13.315Z,40.90
2019-04-26T22:29:51.774Z,40.80
2019-04-26T22:32:28.555Z,40.90
2019-04-26T22:35:06.011Z,40.80
2019-04-26T22:37:45.571Z,40.90
2019-04-26T22:40:23.249Z,40.90
2019-04-26T22:43:16.266Z,41.40
2019-04-26T22:45:54.126Z,40.70
2019-04-26T22:48:33.981Z,40.80
2019-04-26T22:51:10.522Z,40.80
2019-04-26T22:53:48.598Z,40.80
2019-04-26T22:56:25.345Z,40.70
2019-04-26T22:59:04.772Z,40.60
2019-04-26T23:01:44.621Z,40.70
2019-04-26T23:04:23.531Z,40.70
2019-04-26T23:06:56.801Z,40.70
2019-04-26T23:09:33.373Z,40.60
2019-04-26T23:12:28.458Z,40.60
2019-04-26T23:15:39.949Z,40.60
2019-04-26T23:18:30.717Z,40.70
2019-04-26T23:21:26.967Z,40.60
2019-04-26T23:24:03.767Z,40.60
2019-04-26T23:26:41.685Z,40.60
2019-04-26T23:29:19.032Z,40.60
2019-04-26T23:31:55.559Z,40.50
2019-04-26T23:34:33.666Z,40.50
2019-04-26T23:37:11.020Z,40.60
2019-04-26T23:39:49.785Z,40.50
2019-04-26T23:42:25.722Z,40.50
2019-04-26T23:45:03.149Z,40.60
2019-04-26T23:47:40.568Z,40.60
2019-04-26T23:50:17.376Z,40.80
2019-04-26T23:52:54.154Z,41.00
2019-04-26T23:55:31.090Z,41.30
2019-04-26T23:58:10.575Z,41.00
